sensor_id;sensor_type;location;lat;lon;timestamp;pressure;altitude;pressure_sealevel;temperature;humidity
3102;BME280;1561;42.666;23.392;2022-12-17T00:01:08;94976.00;;;7.33;100.00
3102;BME280;1561;42.666;23.392;2022-12-17T00:04:16;94951.97;;;7.83;100.00
3102;BME280;1561;42.666;23.392;2022-12-17T00:07:02;94971.25;;;7.74;100.00
3102;BME280;1561;42.666;23.392;2022-12-17T00:09:56;94979.50;;;7.54;100.00
3102;BME280;1561;42.666;23.392;2022-12-17T00:12:47;94958.69;;;7.38;100.00
3102;BME280;1561;42.666;23.392;2022-12-17T00:15:41;94946.94;;;7.59;100.00
3102;BME280;1561;42.666;23.392;2022-12-17T00:18:31;94967.22;;;7.83;100.00
3102;BME280;1561;42.666;23.392;2022-12-17T00:21:18;94956.97;;;8.17;100.00
3102;BME280;1561;42.666;23.392;2022-12-17T00:24:10;94960.88;;;7.88;100.00
3102;BME280;1561;42.666;23.392;2022-12-17T00:27:12;94953.59;;;7.95;100.00
3102;BME280;1561;42.666;23.392;2022-12-17T00:29:57;94971.94;;;7.65;100.00
3102;BME280;1561;42.666;23.392;2022-12-17T00:32:42;94918.88;;;7.61;100.00
3102;BME280;1561;42.666;23.392;2022-12-17T00:35:27;94958.75;;;7.71;100.00
3102;BME280;1561;42.666;23.392;2022-12-17T00:38:16;94926.03;;;7.45;100.00
3102;BME280;1561;42.666;23.392;2022-12-17T00:41:11;94957.94;;;7.60;100.00
3102;BME280;1561;42.666;23.392;2022-12-17T00:44:04;94939.47;;;7.69;100.00
3102;BME280;1561;42.666;23.392;2022-12-17T00:46:48;94928.72;;;7.20;100.00
3102;BME280;1561;42.666;23.392;2022-12-17T00:49:44;94925.91;;;7.46;100.00
3102;BME280;1561;42.666;23.392;2022-12-17T00:52:30;94952.75;;;7.61;100.00
3102;BME280;1561;42.666;23.392;2022-12-17T00:55:15;94923.81;;;7.40;100.00
3102;BME280;1561;42.666;23.392;2022-12-17T00:58:03;94942.84;;;7.35;100.00
3102;BME280;1561;42.666;23.392;2022-12-17T01:04:01;94942.53;;;7.50;100.00
3102;BME280;1561;42.666;23.392;2022-12-17T01:06:47;94923.59;;;7.43;100.00
3102;BME280;1561;42.666;23.392;2022-12-17T01:09:59;94933.94;;;7.29;100.00
3102;BME280;1561;42.666;23.392;2022-12-17T01:12:44;94908.44;;;7.31;100.00
3102;BME280;1561;42.666;23.392;2022-12-17T01:15:29;94963.88;;;7.37;100.00
3102;BME280;1561;42.666;23.392;2022-12-17T01:18:17;94897.72;;;7.38;100.00
3102;BME280;1561;42.666;23.392;2022-12-17T01:21:20;94940.50;;;7.66;100.00
3102;BME280;1561;42.666;23.392;2022-12-17T01:24:23;94923.38;;;7.57;100.00
3102;BME280;1561;42.666;23.392;2022-12-17T01:27:07;94944.44;;;7.70;100.00
3102;BME280;1561;42.666;23.392;2022-12-17T01:29:54;94944.75;;;7.66;100.00
3102;BME280;1561;42.666;23.392;2022-12-17T01:32:40;94914.03;;;7.58;100.00
3102;BME280;1561;42.666;23.392;2022-12-17T01:35:25;94945.56;;;7.55;100.00
3102;BME280;1561;42.666;23.392;2022-12-17T01:38:15;94949.84;;;7.66;100.00
3102;BME280;1561;42.666;23.392;2022-12-17T01:41:04;94901.34;;;7.58;100.00
3102;BME280;1561;42.666;23.392;2022-12-17T01:43:49;94954.59;;;7.70;100.00
3102;BME280;1561;42.666;23.392;2022-12-17T01:46:51;94968.25;;;7.69;100.00
3102;BME280;1561;42.666;23.392;2022-12-17T01:49:41;94890.78;;;7.40;100.00
3102;BME280;1561;42.666;23.392;2022-12-17T01:52:26;94929.19;;;7.25;100.00
3102;BME280;1561;42.666;23.392;2022-12-17T01:55:15;94897.16;;;7.46;100.00
3102;BME280;1561;42.666;23.392;2022-12-17T01:58:10;94939.47;;;7.58;100.00
3102;BME280;1561;42.666;23.392;2022-12-17T02:01:08;94931.13;;;7.56;100.00
3102;BME280;1561;42.666;23.392;2022-12-17T02:03:53;94944.88;;;7.53;100.00
3102;BME280;1561;42.666;23.392;2022-12-17T02:06:41;94812.91;;;6.72;100.00
3102;BME280;1561;42.666;23.392;2022-12-17T02:09:37;94681.91;;;5.78;100.00
3102;BME280;1561;42.666;23.392;2022-12-17T02:12:31;94918.72;;;7.40;100.00
3102;BME280;1561;42.666;23.392;2022-12-17T02:15:22;94930.75;;;7.49;100.00
3102;BME280;1561;42.666;23.392;2022-12-17T02:18:15;94872.28;;;7.27;100.00
3102;BME280;1561;42.666;23.392;2022-12-17T02:21:06;94924.59;;;7.30;100.00
3102;BME280;1561;42.666;23.392;2022-12-17T02:23:55;94890.81;;;7.17;100.00
3102;BME280;1561;42.666;23.392;2022-12-17T02:26:53;94880.06;;;7.02;100.00
3102;BME280;1561;42.666;23.392;2022-12-17T02:29:44;94925.13;;;7.11;100.00
3102;BME280;1561;42.666;23.392;2022-12-17T02:32:33;94910.09;;;7.08;100.00
3102;BME280;1561;42.666;23.392;2022-12-17T02:35:22;94914.34;;;7.08;100.00
3102;BME280;1561;42.666;23.392;2022-12-17T02:38:19;94818.56;;;6.41;100.00
3102;BME280;1561;42.666;23.392;2022-12-17T02:41:08;94908.72;;;6.81;100.00
3102;BME280;1561;42.666;23.392;2022-12-17T02:43:58;94922.25;;;6.92;100.00
3102;BME280;1561;42.666;23.392;2022-12-17T02:46:47;94884.19;;;7.27;100.00
3102;BME280;1561;42.666;23.392;2022-12-17T02:49:34;94939.63;;;7.09;100.00
3102;BME280;1561;42.666;23.392;2022-12-17T02:52:24;94910.47;;;7.15;100.00
3102;BME280;1561;42.666;23.392;2022-12-17T02:55:14;94904.44;;;7.05;100.00
3102;BME280;1561;42.666;23.392;2022-12-17T02:57:58;94878.28;;;7.26;100.00
3102;BME280;1561;42.666;23.392;2022-12-17T03:00:44;94875.53;;;7.40;100.00
3102;BME280;1561;42.666;23.392;2022-12-17T03:03:30;94879.31;;;7.24;100.00
3102;BME280;1561;42.666;23.392;2022-12-17T03:06:17;94854.78;;;7.01;100.00
3102;BME280;1561;42.666;23.392;2022-12-17T03:09:29;94887.72;;;7.13;100.00
3102;BME280;1561;42.666;23.392;2022-12-17T03:12:14;94859.56;;;7.16;100.00
3102;BME280;1561;42.666;23.392;2022-12-17T03:15:06;94854.31;;;6.96;100.00
3102;BME280;1561;42.666;23.392;2022-12-17T03:18:16;94840.69;;;7.08;100.00
3102;BME280;1561;42.666;23.392;2022-12-17T03:20:59;94835.41;;;7.11;100.00
3102;BME280;1561;42.666;23.392;2022-12-17T03:23:45;94853.66;;;7.05;100.00
3102;BME280;1561;42.666;23.392;2022-12-17T03:26:32;94844.94;;;6.96;100.00
3102;BME280;1561;42.666;23.392;2022-12-17T03:29:17;94848.13;;;7.22;100.00
3102;BME280;1561;42.666;23.392;2022-12-17T03:35:21;94859.34;;;7.30;100.00
3102;BME280;1561;42.666;23.392;2022-12-17T03:38:06;94858.63;;;7.17;100.00
3102;BME280;1561;42.666;23.392;2022-12-17T03:41:21;94857.84;;;7.28;100.00
3102;BME280;1561;42.666;23.392;2022-12-17T03:44:06;94817.16;;;7.06;100.00
3102;BME280;1561;42.666;23.392;2022-12-17T03:46:53;94868.44;;;7.22;100.00
3102;BME280;1561;42.666;23.392;2022-12-17T03:49:44;94850.44;;;7.14;100.00
3102;BME280;1561;42.666;23.392;2022-12-17T03:52:49;94888.06;;;7.20;100.00
3102;BME280;1561;42.666;23.392;2022-12-17T03:55:37;94826.56;;;7.38;100.00
3102;BME280;1561;42.666;23.392;2022-12-17T03:58:52;94851.25;;;7.36;100.00
3102;BME280;1561;42.666;23.392;2022-12-17T04:02:03;94837.84;;;7.23;100.00
3102;BME280;1561;42.666;23.392;2022-12-17T04:04:48;94867.50;;;7.12;100.00
3102;BME280;1561;42.666;23.392;2022-12-17T04:07:45;94857.03;;;7.16;100.00
3102;BME280;1561;42.666;23.392;2022-12-17T04:10:34;94862.69;;;7.20;100.00
3102;BME280;1561;42.666;23.392;2022-12-17T04:13:21;94859.41;;;7.07;100.00
3102;BME280;1561;42.666;23.392;2022-12-17T04:16:12;94827.19;;;6.96;100.00
3102;BME280;1561;42.666;23.392;2022-12-17T04:22:26;94863.25;;;7.23;100.00
3102;BME280;1561;42.666;23.392;2022-12-17T04:25:11;94880.59;;;7.40;100.00
3102;BME280;1561;42.666;23.392;2022-12-17T04:28:19;94890.66;;;7.31;100.00
3102;BME280;1561;42.666;23.392;2022-12-17T04:31:07;94853.47;;;7.41;100.00
3102;BME280;1561;42.666;23.392;2022-12-17T04:33:54;94866.66;;;7.46;100.00
3102;BME280;1561;42.666;23.392;2022-12-17T04:36:40;94883.50;;;7.36;100.00
3102;BME280;1561;42.666;23.392;2022-12-17T04:39:27;94906.84;;;7.52;100.00
3102;BME280;1561;42.666;23.392;2022-12-17T04:42:14;94870.47;;;7.51;100.00
3102;BME280;1561;42.666;23.392;2022-12-17T04:45:03;94859.25;;;7.32;100.00
3102;BME280;1561;42.666;23.392;2022-12-17T04:48:10;94898.13;;;7.21;100.00
3102;BME280;1561;42.666;23.392;2022-12-17T04:50:54;94875.63;;;7.28;100.00
3102;BME280;1561;42.666;23.392;2022-12-17T04:53:41;94899.91;;;7.43;100.00
3102;BME280;1561;42.666;23.392;2022-12-17T04:56:26;94930.59;;;7.29;100.00
3102;BME280;1561;42.666;23.392;2022-12-17T04:59:13;94870.34;;;7.42;100.00
3102;BME280;1561;42.666;23.392;2022-12-17T05:02:43;94891.13;;;7.36;100.00
3102;BME280;1561;42.666;23.392;2022-12-17T05:05:38;94901.50;;;7.44;100.00
3102;BME280;1561;42.666;23.392;2022-12-17T05:08:23;94912.53;;;7.55;100.00
3102;BME280;1561;42.666;23.392;2022-12-17T05:11:08;94943.72;;;7.57;100.00
3102;BME280;1561;42.666;23.392;2022-12-17T05:17:17;94924.78;;;7.61;100.00
3102;BME280;1561;42.666;23.392;2022-12-17T05:23:26;94911.72;;;7.55;100.00
3102;BME280;1561;42.666;23.392;2022-12-17T05:26:20;94982.09;;;7.76;100.00
3102;BME280;1561;42.666;23.392;2022-12-17T05:29:21;94923.31;;;7.81;100.00
3102;BME280;1561;42.666;23.392;2022-12-17T05:35:34;94936.25;;;7.67;100.00
3102;BME280;1561;42.666;23.392;2022-12-17T05:38:38;94922.34;;;7.60;100.00
3102;BME280;1561;42.666;23.392;2022-12-17T05:41:24;94922.19;;;7.50;100.00
3102;BME280;1561;42.666;23.392;2022-12-17T05:44:14;94950.06;;;7.52;100.00
3102;BME280;1561;42.666;23.392;2022-12-17T05:47:07;94983.56;;;7.57;100.00
3102;BME280;1561;42.666;23.392;2022-12-17T05:49:51;94926.66;;;7.70;100.00
3102;BME280;1561;42.666;23.392;2022-12-17T05:52:47;94931.59;;;7.61;100.00
3102;BME280;1561;42.666;23.392;2022-12-17T05:55:34;94946.94;;;7.59;100.00
3102;BME280;1561;42.666;23.392;2022-12-17T05:58:21;94950.50;;;7.46;100.00
3102;BME280;1561;42.666;23.392;2022-12-17T06:01:41;94957.50;;;7.88;100.00
3102;BME280;1561;42.666;23.392;2022-12-17T06:07:48;94949.88;;;7.77;100.00
3102;BME280;1561;42.666;23.392;2022-12-17T06:10:48;94917.66;;;7.77;100.00
3102;BME280;1561;42.666;23.392;2022-12-17T06:13:36;94979.72;;;7.86;100.00
3102;BME280;1561;42.666;23.392;2022-12-17T06:16:22;94943.53;;;7.93;100.00
3102;BME280;1561;42.666;23.392;2022-12-17T06:19:08;94923.53;;;8.55;100.00
3102;BME280;1561;42.666;23.392;2022-12-17T06:22:28;94952.63;;;9.47;100.00
3102;BME280;1561;42.666;23.392;2022-12-17T06:25:15;94953.84;;;9.94;100.00
3102;BME280;1561;42.666;23.392;2022-12-17T06:28:10;94967.44;;;10.15;100.00
3102;BME280;1561;42.666;23.392;2022-12-17T06:30:56;94974.25;;;9.94;100.00
3102;BME280;1561;42.666;23.392;2022-12-17T06:34:02;95011.22;;;10.70;100.00
3102;BME280;1561;42.666;23.392;2022-12-17T06:36:50;94995.59;;;11.22;100.00
3102;BME280;1561;42.666;23.392;2022-12-17T06:39:51;94984.19;;;11.36;100.00
3102;BME280;1561;42.666;23.392;2022-12-17T06:42:38;95012.31;;;12.12;100.00
3102;BME280;1561;42.666;23.392;2022-12-17T06:45:28;95032.28;;;12.54;100.00
3102;BME280;1561;42.666;23.392;2022-12-17T06:48:17;94973.41;;;11.23;100.00
3102;BME280;1561;42.666;23.392;2022-12-17T06:51:01;95014.88;;;11.36;100.00
3102;BME280;1561;42.666;23.392;2022-12-17T06:53:57;95008.97;;;11.83;100.00
3102;BME280;1561;42.666;23.392;2022-12-17T06:56:43;94986.88;;;11.15;100.00
3102;BME280;1561;42.666;23.392;2022-12-17T06:59:37;95000.34;;;11.27;100.00
3102;BME280;1561;42.666;23.392;2022-12-17T07:05:46;95047.72;;;12.16;100.00
3102;BME280;1561;42.666;23.392;2022-12-17T07:08:36;95061.28;;;13.01;100.00
3102;BME280;1561;42.666;23.392;2022-12-17T07:11:21;95114.81;;;14.20;100.00
3102;BME280;1561;42.666;23.392;2022-12-17T07:14:08;94989.06;;;13.23;100.00
3102;BME280;1561;42.666;23.392;2022-12-17T07:17:12;95145.72;;;13.12;100.00
3102;BME280;1561;42.666;23.392;2022-12-17T07:19:58;95158.41;;;14.12;100.00
3102;BME280;1561;42.666;23.392;2022-12-17T07:22:47;95166.13;;;14.12;100.00
3102;BME280;1561;42.666;23.392;2022-12-17T07:25:33;95076.06;;;11.86;100.00
3102;BME280;1561;42.666;23.392;2022-12-17T07:28:22;95142.44;;;11.69;100.00
3102;BME280;1561;42.666;23.392;2022-12-17T07:31:07;95167.19;;;10.99;100.00
3102;BME280;1561;42.666;23.392;2022-12-17T07:33:54;95062.59;;;10.47;100.00
3102;BME280;1561;42.666;23.392;2022-12-17T07:36:43;95086.28;;;10.28;100.00
3102;BME280;1561;42.666;23.392;2022-12-17T07:39:28;95105.38;;;10.84;100.00
3102;BME280;1561;42.666;23.392;2022-12-17T07:42:18;95115.38;;;11.66;100.00
3102;BME280;1561;42.666;23.392;2022-12-17T07:45:07;95119.50;;;11.09;100.00
3102;BME280;1561;42.666;23.392;2022-12-17T07:47:51;95086.69;;;10.54;100.00
3102;BME280;1561;42.666;23.392;2022-12-17T07:50:36;95096.22;;;10.31;100.00
3102;BME280;1561;42.666;23.392;2022-12-17T07:53:33;95078.13;;;10.14;100.00
3102;BME280;1561;42.666;23.392;2022-12-17T07:56:42;95067.81;;;10.04;100.00
3102;BME280;1561;42.666;23.392;2022-12-17T07:59:28;95040.13;;;10.00;100.00
3102;BME280;1561;42.666;23.392;2022-12-17T08:02:13;95009.31;;;9.92;100.00
3102;BME280;1561;42.666;23.392;2022-12-17T08:04:59;94995.13;;;9.99;100.00
3102;BME280;1561;42.666;23.392;2022-12-17T08:07:45;95018.28;;;10.27;100.00
3102;BME280;1561;42.666;23.392;2022-12-17T08:10:30;95023.31;;;10.38;100.00
3102;BME280;1561;42.666;23.392;2022-12-17T08:13:17;94982.09;;;10.52;100.00
3102;BME280;1561;42.666;23.392;2022-12-17T08:16:03;94979.25;;;10.36;100.00
3102;BME280;1561;42.666;23.392;2022-12-17T08:18:48;95015.16;;;10.84;100.00
3102;BME280;1561;42.666;23.392;2022-12-17T08:21:52;95030.66;;;11.01;100.00
3102;BME280;1561;42.666;23.392;2022-12-17T08:24:36;95018.78;;;10.81;100.00
3102;BME280;1561;42.666;23.392;2022-12-17T08:27:29;95070.41;;;11.92;100.00
3102;BME280;1561;42.666;23.392;2022-12-17T08:30:38;95091.91;;;12.28;100.00
3102;BME280;1561;42.666;23.392;2022-12-17T08:33:26;95083.59;;;12.07;100.00
3102;BME280;1561;42.666;23.392;2022-12-17T08:36:11;95040.34;;;12.13;100.00
3102;BME280;1561;42.666;23.392;2022-12-17T08:38:55;95031.28;;;12.28;100.00
3102;BME280;1561;42.666;23.392;2022-12-17T08:41:39;95023.69;;;15.82;100.00
3102;BME280;1561;42.666;23.392;2022-12-17T08:44:23;95032.13;;;17.94;100.00
3102;BME280;1561;42.666;23.392;2022-12-17T08:47:09;95049.81;;;19.52;100.00
3102;BME280;1561;42.666;23.392;2022-12-17T08:53:15;95108.59;;;19.08;100.00
3102;BME280;1561;42.666;23.392;2022-12-17T08:56:00;95135.78;;;18.89;100.00
3102;BME280;1561;42.666;23.392;2022-12-17T08:58:53;95120.25;;;17.69;100.00
3102;BME280;1561;42.666;23.392;2022-12-17T09:01:40;95010.13;;;15.06;100.00
3102;BME280;1561;42.666;23.392;2022-12-17T09:04:27;95118.63;;;14.51;100.00
3102;BME280;1561;42.666;23.392;2022-12-17T09:13:58;95146.41;;;14.47;100.00
3102;BME280;1561;42.666;23.392;2022-12-17T09:16:43;95156.28;;;14.07;100.00
3102;BME280;1561;42.666;23.392;2022-12-17T09:19:28;95140.50;;;13.58;100.00
3102;BME280;1561;42.666;23.392;2022-12-17T09:22:15;95143.09;;;13.58;100.00
3102;BME280;1561;42.666;23.392;2022-12-17T09:25:01;95143.19;;;14.28;100.00
3102;BME280;1561;42.666;23.392;2022-12-17T09:27:47;95139.06;;;13.73;100.00
3102;BME280;1561;42.666;23.392;2022-12-17T09:30:33;95070.41;;;13.13;100.00
3102;BME280;1561;42.666;23.392;2022-12-17T09:33:20;95185.66;;;13.51;100.00
3102;BME280;1561;42.666;23.392;2022-12-17T09:36:07;95170.97;;;13.43;100.00
3102;BME280;1561;42.666;23.392;2022-12-17T09:39:05;95206.53;;;13.65;100.00
3102;BME280;1561;42.666;23.392;2022-12-17T09:41:57;95121.34;;;13.52;100.00
3102;BME280;1561;42.666;23.392;2022-12-17T09:44:49;95189.53;;;13.64;100.00
3102;BME280;1561;42.666;23.392;2022-12-17T09:47:43;95209.72;;;13.50;100.00
3102;BME280;1561;42.666;23.392;2022-12-17T09:50:34;95195.16;;;13.41;100.00
3102;BME280;1561;42.666;23.392;2022-12-17T09:53:23;95160.16;;;13.13;100.00
3102;BME280;1561;42.666;23.392;2022-12-17T09:59:36;95169.09;;;12.99;100.00
3102;BME280;1561;42.666;23.392;2022-12-17T10:02:24;95179.38;;;12.80;100.00
3102;BME280;1561;42.666;23.392;2022-12-17T10:05:13;95183.31;;;12.46;100.00
3102;BME280;1561;42.666;23.392;2022-12-17T10:08:03;95184.13;;;12.28;100.00
3102;BME280;1561;42.666;23.392;2022-12-17T10:11:08;95128.88;;;12.16;100.00
3102;BME280;1561;42.666;23.392;2022-12-17T10:13:55;95146.91;;;12.05;100.00
3102;BME280;1561;42.666;23.392;2022-12-17T10:16:44;95080.16;;;11.49;100.00
3102;BME280;1561;42.666;23.392;2022-12-17T10:19:36;95201.53;;;12.15;100.00
3102;BME280;1561;42.666;23.392;2022-12-17T10:22:23;95224.59;;;12.15;100.00
3102;BME280;1561;42.666;23.392;2022-12-17T10:25:15;95215.13;;;12.06;100.00
3102;BME280;1561;42.666;23.392;2022-12-17T10:28:05;95215.38;;;12.03;100.00
3102;BME280;1561;42.666;23.392;2022-12-17T10:30:51;95244.69;;;12.29;100.00
3102;BME280;1561;42.666;23.392;2022-12-17T10:33:36;95092.09;;;11.30;100.00
3102;BME280;1561;42.666;23.392;2022-12-17T10:36:22;95162.03;;;11.49;100.00
3102;BME280;1561;42.666;23.392;2022-12-17T10:39:14;95239.06;;;11.86;100.00
3102;BME280;1561;42.666;23.392;2022-12-17T10:41:59;95239.06;;;11.86;100.00
3102;BME280;1561;42.666;23.392;2022-12-17T10:45:37;58586.63;;;-138.18;100.00
3102;BME280;1561;42.666;23.392;2022-12-17T10:49:24;58586.63;;;-138.18;100.00
3102;BME280;1561;42.666;23.392;2022-12-17T10:53:19;58586.63;;;-138.18;100.00
3102;BME280;1561;42.666;23.392;2022-12-17T10:57:04;58586.63;;;-138.18;100.00
3102;BME280;1561;42.666;23.392;2022-12-17T11:00:58;58586.63;;;-138.18;100.00
3102;BME280;1561;42.666;23.392;2022-12-17T11:04:51;58586.63;;;-138.18;100.00
3102;BME280;1561;42.666;23.392;2022-12-17T11:08:42;58586.63;;;-138.18;100.00
3102;BME280;1561;42.666;23.392;2022-12-17T11:11:56;95239.06;;;11.86;100.00
3102;BME280;1561;42.666;23.392;2022-12-17T11:15:55;58586.63;;;-138.18;100.00
3102;BME280;1561;42.666;23.392;2022-12-17T11:28:17;58586.63;;;-138.18;100.00
3102;BME280;1561;42.666;23.392;2022-12-17T11:36:38;58586.63;;;-138.18;100.00
3102;BME280;1561;42.666;23.392;2022-12-17T11:40:28;58586.63;;;-138.18;100.00
3102;BME280;1561;42.666;23.392;2022-12-17T11:44:35;58586.63;;;-138.18;100.00
3102;BME280;1561;42.666;23.392;2022-12-17T11:48:26;58586.63;;;-138.18;100.00
3102;BME280;1561;42.666;23.392;2022-12-17T11:56:59;58586.63;;;-138.18;100.00
3102;BME280;1561;42.666;23.392;2022-12-17T12:05:32;58586.63;;;-138.18;100.00
3102;BME280;1561;42.666;23.392;2022-12-17T12:14:02;58586.63;;;-138.18;100.00
3102;BME280;1561;42.666;23.392;2022-12-17T12:18:08;58586.63;;;-138.18;100.00
3102;BME280;1561;42.666;23.392;2022-12-17T12:26:40;58586.63;;;-138.18;100.00
3102;BME280;1561;42.666;23.392;2022-12-17T12:30:59;58586.63;;;-138.18;100.00
3102;BME280;1561;42.666;23.392;2022-12-17T12:39:15;58586.63;;;-138.18;100.00
3102;BME280;1561;42.666;23.392;2022-12-17T12:47:32;58586.63;;;-138.18;100.00
3102;BME280;1561;42.666;23.392;2022-12-17T12:55:49;58586.63;;;-138.18;100.00
3102;BME280;1561;42.666;23.392;2022-12-17T12:59:33;58586.63;;;-138.18;100.00
3102;BME280;1561;42.666;23.392;2022-12-17T13:08:29;58586.63;;;-138.18;100.00
3102;BME280;1561;42.666;23.392;2022-12-17T13:12:15;58586.63;;;-138.18;100.00
3102;BME280;1561;42.666;23.392;2022-12-17T13:24:33;58586.63;;;-138.18;100.00
3102;BME280;1561;42.666;23.392;2022-12-17T13:32:28;58586.63;;;-138.18;100.00
3102;BME280;1561;42.666;23.392;2022-12-17T13:40:22;58586.63;;;-138.18;100.00
3102;BME280;1561;42.666;23.392;2022-12-17T13:44:26;58586.63;;;-138.18;100.00
3102;BME280;1561;42.666;23.392;2022-12-17T13:47:56;58586.63;;;-138.18;100.00
3102;BME280;1561;42.666;23.392;2022-12-17T13:51:42;58586.63;;;-138.18;100.00
3102;BME280;1561;42.666;23.392;2022-12-17T13:59:25;58586.63;;;-138.18;100.00
3102;BME280;1561;42.666;23.392;2022-12-17T14:02:56;58586.63;;;-138.18;100.00
3102;BME280;1561;42.666;23.392;2022-12-17T14:06:40;58586.63;;;-138.18;100.00
3102;BME280;1561;42.666;23.392;2022-12-17T14:10:14;58586.63;;;-138.18;100.00
3102;BME280;1561;42.666;23.392;2022-12-17T14:13:42;58586.63;;;-138.18;100.00
3102;BME280;1561;42.666;23.392;2022-12-17T14:21:23;58586.63;;;-138.18;100.00
3102;BME280;1561;42.666;23.392;2022-12-17T14:24:52;58586.63;;;-138.18;100.00
3102;BME280;1561;42.666;23.392;2022-12-17T14:32:29;58586.63;;;-138.18;100.00
3102;BME280;1561;42.666;23.392;2022-12-17T14:36:00;58586.63;;;-138.18;100.00
3102;BME280;1561;42.666;23.392;2022-12-17T14:39:28;58586.63;;;-138.18;100.00
3102;BME280;1561;42.666;23.392;2022-12-17T14:43:13;58586.63;;;-138.18;100.00
3102;BME280;1561;42.666;23.392;2022-12-17T14:50:04;58586.63;;;-138.18;100.00
3102;BME280;1561;42.666;23.392;2022-12-17T14:53:45;58586.63;;;-138.18;100.00
3102;BME280;1561;42.666;23.392;2022-12-17T14:57:30;58586.63;;;-138.18;100.00
3102;BME280;1561;42.666;23.392;2022-12-17T15:00:57;58586.63;;;-138.18;100.00
3102;BME280;1561;42.666;23.392;2022-12-17T15:04:26;58586.63;;;-138.18;100.00
3102;BME280;1561;42.666;23.392;2022-12-17T15:08:12;58586.63;;;-138.18;100.00
3102;BME280;1561;42.666;23.392;2022-12-17T15:11:38;58586.63;;;-138.18;100.00
3102;BME280;1561;42.666;23.392;2022-12-17T15:15:06;58586.63;;;-138.18;100.00
3102;BME280;1561;42.666;23.392;2022-12-17T15:18:42;58586.63;;;-138.18;100.00
3102;BME280;1561;42.666;23.392;2022-12-17T15:22:13;58586.63;;;-138.18;100.00
3102;BME280;1561;42.666;23.392;2022-12-17T15:25:39;58586.63;;;-138.18;100.00
3102;BME280;1561;42.666;23.392;2022-12-17T15:29:05;58586.63;;;-138.18;100.00
3102;BME280;1561;42.666;23.392;2022-12-17T15:32:32;58586.63;;;-138.18;100.00
3102;BME280;1561;42.666;23.392;2022-12-17T15:35:59;58586.63;;;-138.18;100.00
3102;BME280;1561;42.666;23.392;2022-12-17T15:43:47;58586.63;;;-138.18;100.00
3102;BME280;1561;42.666;23.392;2022-12-17T15:55:44;58586.63;;;-138.18;100.00
3102;BME280;1561;42.666;23.392;2022-12-17T16:07:50;58586.63;;;-138.18;100.00
3102;BME280;1561;42.666;23.392;2022-12-17T16:15:28;58586.63;;;-138.18;100.00
3102;BME280;1561;42.666;23.392;2022-12-17T16:18:55;58586.63;;;-138.18;100.00
3102;BME280;1561;42.666;23.392;2022-12-17T16:22:22;58586.63;;;-138.18;100.00
3102;BME280;1561;42.666;23.392;2022-12-17T16:26:06;58586.63;;;-138.18;100.00
3102;BME280;1561;42.666;23.392;2022-12-17T16:29:36;58586.63;;;-138.18;100.00
3102;BME280;1561;42.666;23.392;2022-12-17T16:33:03;58586.63;;;-138.18;100.00
3102;BME280;1561;42.666;23.392;2022-12-17T16:36:47;58586.63;;;-138.18;100.00
3102;BME280;1561;42.666;23.392;2022-12-17T16:40:35;58586.63;;;-138.18;100.00
3102;BME280;1561;42.666;23.392;2022-12-17T16:48:21;58586.63;;;-138.18;100.00
3102;BME280;1561;42.666;23.392;2022-12-17T16:51:52;58586.63;;;-138.18;100.00
3102;BME280;1561;42.666;23.392;2022-12-17T16:55:23;58586.63;;;-138.18;100.00
3102;BME280;1561;42.666;23.392;2022-12-17T16:58:53;58586.63;;;-138.18;100.00
3102;BME280;1561;42.666;23.392;2022-12-17T17:02:28;58586.63;;;-138.18;100.00
3102;BME280;1561;42.666;23.392;2022-12-17T17:06:03;58586.63;;;-138.18;100.00
3102;BME280;1561;42.666;23.392;2022-12-17T17:09:39;58586.63;;;-138.18;100.00
3102;BME280;1561;42.666;23.392;2022-12-17T17:13:14;58586.63;;;-138.18;100.00
3102;BME280;1561;42.666;23.392;2022-12-17T17:16:46;58586.63;;;-138.18;100.00
3102;BME280;1561;42.666;23.392;2022-12-17T17:20:12;58586.63;;;-138.18;100.00
3102;BME280;1561;42.666;23.392;2022-12-17T17:23:38;58586.63;;;-138.18;100.00
3102;BME280;1561;42.666;23.392;2022-12-17T17:27:05;58586.63;;;-138.18;100.00
3102;BME280;1561;42.666;23.392;2022-12-17T17:30:35;58586.63;;;-138.18;100.00
3102;BME280;1561;42.666;23.392;2022-12-17T17:34:15;58586.63;;;-138.18;100.00
3102;BME280;1561;42.666;23.392;2022-12-17T17:38:07;58586.63;;;-138.18;100.00
3102;BME280;1561;42.666;23.392;2022-12-17T17:41:35;58586.63;;;-138.18;100.00
3102;BME280;1561;42.666;23.392;2022-12-17T17:45:10;58586.63;;;-138.18;100.00
3102;BME280;1561;42.666;23.392;2022-12-17T17:48:51;58586.63;;;-138.18;100.00
3102;BME280;1561;42.666;23.392;2022-12-17T17:52:35;58586.63;;;-138.18;100.00
3102;BME280;1561;42.666;23.392;2022-12-17T17:56:07;58586.63;;;-138.18;100.00
3102;BME280;1561;42.666;23.392;2022-12-17T17:59:42;58586.63;;;-138.18;100.00
3102;BME280;1561;42.666;23.392;2022-12-17T18:07:42;58586.63;;;-138.18;100.00
3102;BME280;1561;42.666;23.392;2022-12-17T18:11:28;58586.63;;;-138.18;100.00
3102;BME280;1561;42.666;23.392;2022-12-17T18:15:12;58586.63;;;-138.18;100.00
3102;BME280;1561;42.666;23.392;2022-12-17T18:18:38;58586.63;;;-138.18;100.00
3102;BME280;1561;42.666;23.392;2022-12-17T18:22:12;58586.63;;;-138.18;100.00
3102;BME280;1561;42.666;23.392;2022-12-17T18:25:39;58586.63;;;-138.18;100.00
3102;BME280;1561;42.666;23.392;2022-12-17T18:29:06;58586.63;;;-138.18;100.00
3102;BME280;1561;42.666;23.392;2022-12-17T18:32:38;58586.63;;;-138.18;100.00
3102;BME280;1561;42.666;23.392;2022-12-17T18:36:30;58586.63;;;-138.18;100.00
3102;BME280;1561;42.666;23.392;2022-12-17T18:40:03;58586.63;;;-138.18;100.00
3102;BME280;1561;42.666;23.392;2022-12-17T18:43:48;58586.63;;;-138.18;100.00
3102;BME280;1561;42.666;23.392;2022-12-17T18:51:08;58586.63;;;-138.18;100.00
3102;BME280;1561;42.666;23.392;2022-12-17T19:03:13;58586.63;;;-138.18;100.00
3102;BME280;1561;42.666;23.392;2022-12-17T19:06:40;58586.63;;;-138.18;100.00
3102;BME280;1561;42.666;23.392;2022-12-17T19:10:14;58586.63;;;-138.18;100.00
3102;BME280;1561;42.666;23.392;2022-12-17T19:13:58;58586.63;;;-138.18;100.00